Uniontown, Kansas
Current Conditions -  °F | °C
As of 7:52 PM on Sunday 21 Dec 2014 (Local Time) from KCNU Reporting Station
Overcast Overcast  
Wind Chill: 39°   Ceiling: 1900
Heat Index: 45°   Visibility: 10mi
Dew Point: 40°   Wind: 13mph
Humidity: 82%   Direction: 150°SSE
Pressure: 29.78"   Gusts: NA
Location:  37.85°N, 94.98°W
Report Text: KCNU 220152Z AUTO 15011KT 10SM OVC019 07/04 A2978 RMK AO2 SLP086 T00720044
Loading
Personal Weather Stations






























Interactive Weather Map New forecast layout! Learn more

10-Day Weather Forecast

Advertisements
Track Severe Weather on mobile